Time;durP1;ratioP1;P1;durP2;ratioP2;P2;SDS_P1;SDS_P2;PMS_P1;PMS_P2;Temp;Humidity;BMP_temperature;BMP_pressure;BME280_temperature;BME280_humidity;BME280_pressure;Samples;Min_cycle;Max_cycle;Signal;HPM_P1;HPM_P2
2024/03/28 00:01:42;;;;;;;8.88;4.25;;;;;;;6.19;100.00;98379.41;5004817;28;20038;-74
2024/03/28 00:04:08;;;;;;;9.02;4.40;;;;;;;6.19;100.00;98384.56;5004960;28;20041;-74
2024/03/28 00:06:33;;;;;;;10.30;4.82;;;;;;;6.21;100.00;98380.00;5021679;28;20741;-74
2024/03/28 00:08:59;;;;;;;9.63;4.70;;;;;;;6.17;100.00;98380.59;5007020;28;20501;-74
2024/03/28 00:11:24;;;;;;;8.63;4.82;;;;;;;6.24;100.00;98384.78;5022473;28;20511;-74
2024/03/28 00:13:49;;;;;;;7.75;4.55;;;;;;;6.20;100.00;98386.16;5003705;28;20393;-74
2024/03/28 00:16:15;;;;;;;9.15;4.40;;;;;;;6.29;100.00;98388.59;5019966;28;20505;-74
2024/03/28 00:18:40;;;;;;;8.70;4.15;;;;;;;6.23;100.00;98384.97;5023395;28;20393;-74
2024/03/28 00:21:06;;;;;;;8.93;4.40;;;;;;;6.32;100.00;98390.78;5031866;28;22637;-74
2024/03/28 00:23:31;;;;;;;8.50;3.95;;;;;;;6.36;100.00;98392.00;5008425;28;20562;-74
2024/03/28 00:25:58;;;;;;;9.90;4.57;;;;;;;6.34;100.00;98389.63;5009314;28;20124;-74
2024/03/28 00:28:24;;;;;;;6.00;3.80;;;;;;;6.22;100.00;98384.19;5037406;28;20025;-75
2024/03/28 00:30:51;;;;;;;7.22;4.70;;;;;;;6.26;100.00;98376.09;5010222;28;21658;-74
2024/03/28 00:33:17;;;;;;;8.48;4.60;;;;;;;6.22;100.00;98370.53;5009459;28;20091;-74
2024/03/28 00:35:43;;;;;;;9.38;4.80;;;;;;;6.26;100.00;98364.03;5028679;28;22220;-74
2024/03/28 00:38:09;;;;;;;6.97;4.38;;;;;;;6.28;100.00;98361.28;5008566;28;20493;-74
2024/03/28 00:40:35;;;;;;;8.18;5.20;;;;;;;6.24;100.00;98360.84;5030573;28;20117;-74
2024/03/28 00:43:00;;;;;;;12.48;6.25;;;;;;;6.32;100.00;98358.13;5025817;28;20033;-74
2024/03/28 00:45:26;;;;;;;9.20;4.68;;;;;;;6.23;100.00;98351.53;5036944;28;20121;-74
2024/03/28 00:47:51;;;;;;;8.82;5.25;;;;;;;6.30;100.00;98334.34;5010298;28;20080;-74
2024/03/28 00:50:17;;;;;;;9.10;4.80;;;;;;;6.20;100.00;98339.03;5012103;28;20088;-74
2024/03/28 00:52:42;;;;;;;5.60;4.70;;;;;;;6.23;100.00;98333.50;5023810;28;20038;-74
2024/03/28 00:55:08;;;;;;;7.70;5.43;;;;;;;6.21;100.00;98333.69;5000989;28;20026;-74
2024/03/28 00:57:33;;;;;;;12.15;4.72;;;;;;;6.31;100.00;98325.66;5020970;28;20037;-74
2024/03/28 00:59:58;;;;;;;7.50;4.75;;;;;;;6.32;100.00;98323.88;5020775;28;20088;-74
2024/03/28 01:02:24;;;;;;;7.72;4.72;;;;;;;6.26;100.00;98317.69;5035558;28;20038;-75
2024/03/28 01:04:50;;;;;;;8.35;5.30;;;;;;;6.26;100.00;98319.47;5002804;28;20034;-74
2024/03/28 01:07:16;;;;;;;7.95;5.53;;;;;;;6.24;100.00;98309.38;5020651;28;20046;-74
2024/03/28 01:09:41;;;;;;;9.65;4.72;;;;;;;6.29;100.00;98307.03;5022519;28;20064;-74
2024/03/28 01:12:07;;;;;;;6.85;4.22;;;;;;;6.35;100.00;98315.78;5006869;28;20459;-74
2024/03/28 01:14:32;;;;;;;5.95;4.10;;;;;;;6.26;100.00;98312.56;5005618;28;20238;-74
2024/03/28 01:16:58;;;;;;;8.10;4.65;;;;;;;6.28;100.00;98320.09;5006958;28;20045;-73
2024/03/28 01:19:23;;;;;;;10.38;5.53;;;;;;;6.27;100.00;98300.47;5021028;28;20045;-74
2024/03/28 01:21:48;;;;;;;7.50;4.65;;;;;;;6.28;100.00;98299.50;5006754;28;20037;-74
2024/03/28 01:24:14;;;;;;;7.55;4.60;;;;;;;6.25;100.00;98290.34;5008924;28;20037;-74
2024/03/28 01:26:39;;;;;;;6.55;4.20;;;;;;;6.21;100.00;98295.09;5007433;28;20034;-75
2024/03/28 01:29:05;;;;;;;7.03;4.18;;;;;;;6.24;100.00;98294.72;5024157;28;20041;-74
2024/03/28 01:31:31;;;;;;;9.63;4.13;;;;;;;6.23;100.00;98292.31;5024128;28;20038;-74
2024/03/28 01:33:56;;;;;;;6.18;4.20;;;;;;;6.26;100.00;98296.31;5008561;28;20041;-74
2024/03/28 01:36:22;;;;;;;9.50;4.25;;;;;;;6.20;100.00;98308.94;5009012;28;20049;-74
2024/03/28 01:38:47;;;;;;;7.18;3.85;;;;;;;6.20;100.00;98297.88;5024926;28;20030;-74
2024/03/28 01:41:13;;;;;;;6.55;4.25;;;;;;;6.06;100.00;98288.47;5007977;28;20045;-74
2024/03/28 01:43:39;;;;;;;5.20;3.75;;;;;;;6.11;100.00;98294.63;5023883;28;20033;-74
2024/03/28 01:46:06;;;;;;;6.53;3.80;;;;;;;6.07;100.00;98297.78;5022677;28;20050;-74
2024/03/28 01:48:31;;;;;;;6.20;3.83;;;;;;;6.10;100.00;98285.31;5025152;28;20033;-74
2024/03/28 01:50:57;;;;;;;7.75;3.42;;;;;;;6.14;100.00;98281.41;5010630;28;20045;-74
2024/03/28 01:53:23;;;;;;;5.18;3.65;;;;;;;6.13;100.00;98281.59;5024367;28;20513;-74
2024/03/28 01:55:49;;;;;;;8.18;4.25;;;;;;;6.10;100.00;98280.16;5024147;28;20042;-74
2024/03/28 01:58:15;;;;;;;8.07;4.13;;;;;;;6.00;100.00;98280.50;5038205;28;20037;-74
2024/03/28 02:00:42;;;;;;;5.72;3.58;;;;;;;6.02;100.00;98280.31;5039986;28;20046;-74
2024/03/28 02:03:07;;;;;;;7.05;3.70;;;;;;;6.01;100.00;98278.75;5025530;28;20026;-74
2024/03/28 02:05:34;;;;;;;8.80;4.45;;;;;;;6.06;100.00;98289.25;5021719;28;20386;-74
2024/03/28 02:07:59;;;;;;;4.90;3.65;;;;;;;6.03;100.00;98284.50;5027022;28;20030;-74
2024/03/28 02:10:24;;;;;;;6.35;3.90;;;;;;;6.06;100.00;98283.31;5026248;28;20104;-74
2024/03/28 02:12:50;;;;;;;6.20;3.90;;;;;;;6.06;100.00;98278.97;5008854;28;20492;-75
2024/03/28 02:15:16;;;;;;;11.32;4.22;;;;;;;5.99;100.00;98285.84;5040664;28;20034;-74
2024/03/28 02:17:48;;;;;;;8.30;4.65;;;;;;;6.05;100.00;98272.25;5021961;28;20511;-74
2024/03/28 02:20:15;;;;;;;8.05;4.65;;;;;;;6.06;100.00;98265.31;5004718;28;20030;-74
2024/03/28 02:22:41;;;;;;;7.03;4.15;;;;;;;6.13;100.00;98263.56;5021969;28;20034;-74
2024/03/28 02:25:07;;;;;;;6.47;4.10;;;;;;;6.08;100.00;98258.19;4991450;28;20096;-74
2024/03/28 02:27:37;;;;;;;8.13;4.93;;;;;;;6.13;100.00;98261.78;5004830;28;21894;-74
2024/03/28 02:30:11;;;;;;;7.95;4.55;;;;;;;6.08;100.00;98258.97;5007022;28;20033;-74
2024/03/28 02:32:36;;;;;;;6.85;4.68;;;;;;;6.12;100.00;98264.53;5025015;28;20030;-74
2024/03/28 02:35:04;;;;;;;7.78;4.25;;;;;;;6.04;100.00;98268.06;5006748;28;20029;-74
2024/03/28 02:37:30;;;;;;;6.88;4.82;;;;;;;5.96;100.00;98263.84;5023746;28;20536;-74
2024/03/28 02:39:55;;;;;;;6.22;4.22;;;;;;;5.97;100.00;98257.75;5007339;28;20180;-75
2024/03/28 02:42:21;;;;;;;7.25;4.45;;;;;;;5.96;100.00;98253.56;5023015;28;20038;-75
2024/03/28 02:44:47;;;;;;;5.60;4.25;;;;;;;5.94;100.00;98247.78;5024818;28;20469;-74
2024/03/28 02:47:12;;;;;;;7.03;4.22;;;;;;;5.88;100.00;98253.69;5004912;28;20037;-74
2024/03/28 02:49:38;;;;;;;6.95;4.65;;;;;;;5.89;100.00;98250.13;5019601;28;20037;-74
2024/03/28 02:52:05;;;;;;;6.70;4.60;;;;;;;5.84;100.00;98242.97;5021433;28;20040;-74
2024/03/28 02:54:31;;;;;;;8.10;4.43;;;;;;;5.83;100.00;98245.72;5022095;28;20139;-74
2024/03/28 02:57:01;;;;;;;6.32;3.88;;;;;;;5.96;100.00;98238.13;5005315;28;20432;-74
2024/03/28 02:59:26;;;;;;;8.25;4.30;;;;;;;5.80;100.00;98233.25;5020754;28;20030;-74
2024/03/28 03:01:52;;;;;;;12.52;4.57;;;;;;;5.79;100.00;98239.38;5016735;28;20618;-74
2024/03/28 03:04:17;;;;;;;6.78;4.45;;;;;;;5.76;100.00;98230.25;5006818;28;20064;-74
2024/03/28 03:06:43;;;;;;;7.53;4.43;;;;;;;5.74;100.00;98228.84;5005444;28;20061;-74
2024/03/28 03:09:08;;;;;;;6.50;4.18;;;;;;;5.69;100.00;98226.03;5023449;28;20057;-74
2024/03/28 03:11:34;;;;;;;6.47;3.85;;;;;;;5.79;100.00;98231.66;5006147;28;20034;-73
2024/03/28 03:13:59;;;;;;;9.07;4.40;;;;;;;5.67;100.00;98231.41;5028566;28;20029;-74
2024/03/28 03:16:24;;;;;;;6.32;4.50;;;;;;;5.65;100.00;98223.03;5009831;28;20034;-74
2024/03/28 03:18:50;;;;;;;10.40;5.00;;;;;;;5.60;100.00;98226.19;5023143;28;20034;-73
2024/03/28 03:21:16;;;;;;;10.05;4.93;;;;;;;5.58;100.00;98217.88;5021099;28;20053;-74
2024/03/28 03:23:48;;;;;;;9.88;5.57;;;;;;;5.52;100.00;98222.94;5023512;28;20087;-74
2024/03/28 03:26:20;;;;;;;9.32;5.60;;;;;;;5.44;100.00;98214.41;5021788;28;20172;-74
2024/03/28 03:34:35;;;;;;;6.15;4.72;;;;;;;5.44;100.00;98186.13;5006889;28;20038;-74
2024/03/28 03:37:01;;;;;;;8.63;4.82;;;;;;;5.47;100.00;98185.75;5021063;28;20044;-73
2024/03/28 03:39:28;;;;;;;8.45;5.40;;;;;;;5.43;100.00;98183.75;5022310;28;20052;-74
2024/03/28 03:41:54;;;;;;;7.63;4.90;;;;;;;5.50;100.00;98171.75;5007619;28;20608;-73
2024/03/28 03:44:19;;;;;;;8.23;4.70;;;;;;;5.44;100.00;98169.91;5010256;28;20030;-73
2024/03/28 03:46:45;;;;;;;8.23;4.65;;;;;;;5.56;100.00;98165.84;5001853;28;20053;-74
2024/03/28 03:49:11;;;;;;;15.00;5.13;;;;;;;5.47;100.00;98154.13;5023577;28;20038;-74
2024/03/28 03:51:36;;;;;;;8.80;4.70;;;;;;;5.47;100.00;98165.19;5004250;28;20034;-74
2024/03/28 03:54:02;;;;;;;8.13;5.57;;;;;;;5.51;100.00;98155.31;5007896;28;20040;-74
2024/03/28 03:56:27;;;;;;;6.93;4.80;;;;;;;5.53;100.00;98160.28;5003895;28;20048;-74
2024/03/28 03:58:53;;;;;;;9.10;5.22;;;;;;;5.52;100.00;98166.38;5025960;28;20070;-73
2024/03/28 04:01:18;;;;;;;7.38;4.43;;;;;;;5.52;100.00;98140.69;5033237;28;20448;-74
2024/03/28 04:03:45;;;;;;;6.78;4.30;;;;;;;5.55;100.00;98133.41;5009061;28;20034;-74
2024/03/28 04:06:10;;;;;;;8.10;5.03;;;;;;;5.59;100.00;98139.75;5004817;28;20050;-74
2024/03/28 04:08:36;;;;;;;6.07;4.25;;;;;;;5.57;100.00;98135.78;5024381;28;20045;-73
2024/03/28 04:11:02;;;;;;;7.20;4.80;;;;;;;5.57;100.00;98134.00;5009829;28;20038;-74
2024/03/28 04:13:28;;;;;;;6.97;4.95;;;;;;;5.59;100.00;98129.47;5009893;28;20453;-74
2024/03/28 04:15:53;;;;;;;8.63;5.00;;;;;;;5.62;100.00;98133.44;5010008;28;20386;-73
2024/03/28 04:18:18;;;;;;;6.93;4.55;;;;;;;5.63;100.00;98137.59;5012480;28;20045;-74
2024/03/28 04:20:44;;;;;;;7.93;4.78;;;;;;;5.72;100.00;98144.19;5011247;28;20046;-74
2024/03/28 04:23:09;;;;;;;8.25;5.10;;;;;;;5.69;100.00;98142.00;5011095;28;20034;-74
2024/03/28 04:25:35;;;;;;;8.90;4.70;;;;;;;5.62;100.00;98133.44;5024436;28;20065;-74
2024/03/28 04:28:00;;;;;;;9.52;4.72;;;;;;;5.67;100.00;98128.53;5008628;28;20029;-74
2024/03/28 04:30:30;;;;;;;7.22;4.80;;;;;;;5.69;100.00;98128.34;5026194;28;20033;-73
2024/03/28 04:32:56;;;;;;;8.90;4.47;;;;;;;5.69;100.00;98116.28;5006159;28;20044;-74
2024/03/28 04:35:23;;;;;;;7.13;4.82;;;;;;;5.65;100.00;98120.19;5009652;28;20034;-73
2024/03/28 04:37:49;;;;;;;8.45;4.97;;;;;;;5.69;100.00;98112.91;5024184;28;20037;-74
2024/03/28 04:40:14;;;;;;;8.57;4.93;;;;;;;5.57;100.00;98105.72;5009891;28;20042;-74
2024/03/28 04:42:40;;;;;;;9.50;4.97;;;;;;;5.51;100.00;98095.41;5008391;28;20049;-74
2024/03/28 04:45:08;;;;;;;7.82;4.80;;;;;;;5.54;100.00;98092.44;5005757;28;20029;-74
2024/03/28 04:47:35;;;;;;;12.60;5.45;;;;;;;5.51;100.00;98091.06;5009644;28;20046;-74
2024/03/28 04:50:01;;;;;;;9.38;5.88;;;;;;;5.53;100.00;98083.16;5012654;28;20499;-73
2024/03/28 04:52:26;;;;;;;9.65;5.43;;;;;;;5.38;100.00;98083.28;5009190;28;20048;-73
2024/03/28 04:54:52;;;;;;;7.40;5.13;;;;;;;5.39;100.00;98079.72;5009936;28;20042;-73
2024/03/28 04:57:17;;;;;;;7.18;4.80;;;;;;;5.46;100.00;98073.66;5011094;28;20046;-73
2024/03/28 04:59:43;;;;;;;9.57;5.68;;;;;;;5.32;100.00;98055.78;5025917;28;20054;-73
2024/03/28 05:02:08;;;;;;;8.93;5.43;;;;;;;5.31;100.00;98065.22;5006267;28;20053;-73
2024/03/28 05:04:34;;;;;;;12.40;6.00;;;;;;;5.26;100.00;98052.97;5010400;28;20148;-74
2024/03/28 05:06:59;;;;;;;11.45;6.50;;;;;;;5.24;100.00;98051.56;5007950;28;20047;-73
2024/03/28 05:09:26;;;;;;;10.15;5.88;;;;;;;5.25;100.00;98041.13;5008319;28;20096;-74
2024/03/28 05:11:52;;;;;;;10.10;5.80;;;;;;;5.19;100.00;98043.63;5008019;28;20456;-73
2024/03/28 05:14:18;;;;;;;10.35;5.72;;;;;;;5.19;100.00;98048.75;5012141;28;20048;-74
2024/03/28 05:16:43;;;;;;;9.98;4.82;;;;;;;5.26;100.00;98032.41;5024313;28;20409;-73
2024/03/28 05:19:09;;;;;;;9.98;5.72;;;;;;;5.18;100.00;98030.00;5010944;28;20028;-73
2024/03/28 05:21:35;;;;;;;10.68;5.50;;;;;;;5.17;100.00;98025.81;5004526;28;20038;-73
2024/03/28 05:24:00;;;;;;;9.02;5.07;;;;;;;5.25;100.00;98004.31;5024626;28;20034;-73
2024/03/28 05:26:26;;;;;;;9.13;5.63;;;;;;;5.20;100.00;98012.63;5011714;28;20041;-75
2024/03/28 05:28:51;;;;;;;11.57;5.68;;;;;;;5.15;100.00;98009.81;5009147;28;20369;-74
2024/03/28 05:31:18;;;;;;;9.10;5.45;;;;;;;5.22;100.00;98022.72;5007867;28;20567;-73
2024/03/28 05:33:44;;;;;;;13.98;6.15;;;;;;;5.20;100.00;98027.25;5025590;28;20037;-74
2024/03/28 05:36:11;;;;;;;9.95;5.82;;;;;;;5.12;100.00;98015.31;5026319;28;20420;-74
2024/03/28 05:38:36;;;;;;;10.73;5.78;;;;;;;5.19;100.00;98010.22;5010196;28;20508;-73
2024/03/28 05:41:02;;;;;;;12.63;5.47;;;;;;;5.18;100.00;98013.75;5009090;28;20041;-74
2024/03/28 05:43:27;;;;;;;13.55;7.38;;;;;;;5.22;100.00;98008.06;5009766;28;20184;-73
2024/03/28 05:45:53;;;;;;;13.32;6.03;;;;;;;5.31;100.00;98018.19;5007943;28;20033;-74
2024/03/28 05:48:19;;;;;;;15.27;8.00;;;;;;;5.31;100.00;98044.66;5009256;28;20029;-73
2024/03/28 05:50:48;;;;;;;14.18;6.95;;;;;;;5.35;100.00;98056.19;5008698;28;20049;-73
2024/03/28 05:53:14;;;;;;;11.07;5.68;;;;;;;5.39;100.00;98059.97;5024521;28;20109;-74
2024/03/28 05:55:41;;;;;;;10.90;5.90;;;;;;;5.36;100.00;98065.47;5004398;28;20487;-73
2024/03/28 05:58:07;;;;;;;16.55;8.68;;;;;;;5.36;100.00;98085.25;5023293;28;20362;-74
2024/03/28 06:00:32;;;;;;;15.88;7.50;;;;;;;5.45;100.00;98081.53;5022484;28;20048;-73
2024/03/28 06:02:58;;;;;;;14.23;7.05;;;;;;;5.47;100.00;98082.94;5024020;28;20022;-73
2024/03/28 06:05:23;;;;;;;11.82;6.45;;;;;;;5.45;100.00;98082.31;5008506;28;20523;-74
2024/03/28 06:07:49;;;;;;;11.23;6.55;;;;;;;5.57;100.00;98077.44;5007097;28;20065;-73
2024/03/28 06:10:14;;;;;;;14.63;6.45;;;;;;;5.55;100.00;98079.41;5023049;28;20030;-73
2024/03/28 06:12:40;;;;;;;15.30;6.93;;;;;;;5.57;100.00;98081.81;5026622;28;20029;-73
2024/03/28 06:15:05;;;;;;;14.75;7.32;;;;;;;5.69;100.00;98080.28;5007458;28;20034;-74
2024/03/28 06:17:30;;;;;;;12.82;6.57;;;;;;;5.64;100.00;98083.41;5023217;28;20029;-73
2024/03/28 06:19:56;;;;;;;12.48;7.47;;;;;;;5.73;100.00;98073.00;5026991;28;20042;-73
2024/03/28 06:22:21;;;;;;;14.15;7.30;;;;;;;5.83;100.00;98076.78;5009901;28;20038;-73
2024/03/28 06:24:48;;;;;;;12.50;6.95;;;;;;;5.87;100.00;98074.63;5005732;28;20073;-73
2024/03/28 06:27:13;;;;;;;14.13;6.05;;;;;;;6.03;100.00;98076.91;5007638;28;20037;-74
2024/03/28 06:29:49;;;;;;;9.77;5.50;;;;;;;6.08;100.00;98067.81;5022579;28;20052;-73
2024/03/28 06:32:24;;;;;;;9.52;5.82;;;;;;;6.08;100.00;98066.00;5007800;28;20089;-74
2024/03/28 06:34:54;;;;;;;11.35;6.10;;;;;;;6.14;100.00;98061.88;5022048;28;20076;-73
2024/03/28 06:37:20;;;;;;;10.27;5.93;;;;;;;6.16;100.00;98057.31;5007191;28;20123;-73
2024/03/28 06:39:49;;;;;;;9.27;5.50;;;;;;;6.30;100.00;98064.09;5023055;28;20037;-73
2024/03/28 06:42:16;;;;;;;9.27;5.47;;;;;;;6.33;100.00;98062.91;5027777;28;20050;-74
2024/03/28 06:44:47;;;;;;;11.63;6.45;;;;;;;6.46;100.00;98064.72;5004200;28;20450;-73
2024/03/28 06:47:13;;;;;;;10.07;5.50;;;;;;;6.46;100.00;98067.28;5005297;28;20108;-74
2024/03/28 06:49:38;;;;;;;10.27;5.45;;;;;;;6.62;100.00;98067.72;5022787;28;20034;-73
2024/03/28 06:52:04;;;;;;;11.15;5.00;;;;;;;6.74;99.58;98065.38;5025743;28;20404;-73
2024/03/28 06:54:30;;;;;;;8.73;5.05;;;;;;;6.87;99.63;98069.72;5005184;28;20034;-74
2024/03/28 06:56:55;;;;;;;8.45;5.05;;;;;;;6.87;98.41;98074.88;5005149;28;20046;-73
2024/03/28 06:59:21;;;;;;;7.78;4.90;;;;;;;6.95;97.82;98081.59;5014860;28;20029;-73
2024/03/28 07:01:46;;;;;;;9.02;4.28;;;;;;;6.86;98.09;98075.88;5038411;28;20448;-74
2024/03/28 07:04:12;;;;;;;13.73;4.85;;;;;;;6.97;97.61;98077.84;5010102;28;20041;-74
2024/03/28 07:06:37;;;;;;;9.45;4.78;;;;;;;7.00;98.54;98082.59;5007292;28;20042;-74
2024/03/28 07:09:03;;;;;;;8.32;4.18;;;;;;;6.99;97.89;98085.38;5006743;28;20507;-74
2024/03/28 07:11:29;;;;;;;11.05;4.90;;;;;;;7.02;97.67;98082.41;5033997;28;20104;-74
2024/03/28 07:13:54;;;;;;;13.18;4.90;;;;;;;6.94;98.27;98083.38;5006686;28;20109;-74
2024/03/28 07:16:20;;;;;;;9.63;5.57;;;;;;;6.97;99.66;98095.09;5006621;28;20108;-73
2024/03/28 07:18:45;;;;;;;7.90;5.43;;;;;;;6.96;99.06;98090.94;5004744;28;20070;-73
2024/03/28 07:21:11;;;;;;;11.65;4.88;;;;;;;6.90;99.74;98089.94;5021641;28;20129;-73
2024/03/28 07:23:42;;;;;;;11.82;5.38;;;;;;;6.97;99.77;98100.25;5007699;28;20033;-74
2024/03/28 07:26:08;;;;;;;12.48;5.30;;;;;;;6.88;100.00;98099.66;5022502;28;21689;-74
2024/03/28 07:28:34;;;;;;;8.68;5.53;;;;;;;6.95;100.00;98102.22;5027523;28;20163;-73
2024/03/28 07:30:59;;;;;;;10.30;5.40;;;;;;;6.93;100.00;98109.34;5007150;28;20038;-74
2024/03/28 07:33:25;;;;;;;9.52;4.90;;;;;;;6.87;100.00;98117.88;5005827;28;20034;-73
2024/03/28 07:35:50;;;;;;;11.68;5.78;;;;;;;6.89;100.00;98115.88;5004881;28;20050;-74
2024/03/28 07:38:17;;;;;;;31.65;11.55;;;;;;;6.86;100.00;98119.66;5006047;28;20037;-74
2024/03/28 07:40:51;;;;;;;11.05;5.53;;;;;;;6.77;100.00;98119.03;5020251;28;20099;-73
2024/03/28 07:43:17;;;;;;;9.48;5.22;;;;;;;6.70;100.00;98113.09;5021997;28;20030;-75
2024/03/28 07:45:43;;;;;;;14.15;6.68;;;;;;;6.61;100.00;98112.50;5008591;28;20037;-74
2024/03/28 07:48:10;;;;;;;12.32;5.75;;;;;;;6.69;100.00;98123.59;5010028;28;20393;-75
2024/03/28 07:50:39;;;;;;;9.60;5.30;;;;;;;6.59;100.00;98118.81;5024086;28;20038;-75
2024/03/28 07:53:04;;;;;;;11.20;6.05;;;;;;;6.49;100.00;98116.63;5004359;28;20030;-74
2024/03/28 07:55:30;;;;;;;13.88;6.28;;;;;;;6.51;100.00;98116.44;5006693;28;20037;-74
2024/03/28 07:57:55;;;;;;;15.48;7.28;;;;;;;6.57;100.00;98113.06;5006676;28;20034;-74
2024/03/28 08:00:23;;;;;;;16.00;6.90;;;;;;;6.48;100.00;98119.38;5003222;28;20044;-75
2024/03/28 08:02:49;;;;;;;12.75;4.95;;;;;;;6.36;100.00;98117.38;5021738;28;20025;-73
2024/03/28 08:05:17;;;;;;;14.60;7.13;;;;;;;6.32;100.00;98118.75;5005904;28;20029;-74
2024/03/28 08:07:44;;;;;;;14.27;6.57;;;;;;;6.39;100.00;98121.34;5008737;28;20132;-74
2024/03/28 08:10:10;;;;;;;7.65;4.20;;;;;;;6.43;100.00;98117.41;5020143;28;20042;-74
2024/03/28 08:12:36;;;;;;;11.48;4.72;;;;;;;6.34;100.00;98116.78;5005509;28;20072;-74
2024/03/28 08:15:05;;;;;;;10.30;4.95;;;;;;;6.24;100.00;98122.28;5009343;28;20041;-74
2024/03/28 08:17:31;;;;;;;6.65;3.75;;;;;;;6.29;100.00;98121.72;5009041;28;20042;-75
2024/03/28 08:19:57;;;;;;;9.93;3.60;;;;;;;6.34;100.00;98123.72;5020908;28;20121;-74
2024/03/28 08:22:22;;;;;;;14.88;4.30;;;;;;;6.39;100.00;98124.72;5010731;28;20046;-75
2024/03/28 08:24:48;;;;;;;14.18;8.07;;;;;;;6.41;100.00;98119.38;5024164;28;20049;-74
2024/03/28 08:27:14;;;;;;;10.13;5.43;;;;;;;6.44;100.00;98113.81;5019625;28;20564;-75
2024/03/28 08:29:39;;;;;;;7.03;3.63;;;;;;;6.50;100.00;98117.41;5005008;28;20480;-75
2024/03/28 08:32:05;;;;;;;9.57;3.63;;;;;;;6.47;100.00;98120.38;5009852;28;20100;-75
2024/03/28 08:34:31;;;;;;;20.80;5.82;;;;;;;6.50;100.00;98125.94;5036263;28;20040;-74
2024/03/28 08:36:57;;;;;;;13.73;7.32;;;;;;;6.59;100.00;98126.53;4987423;28;20042;-74
2024/03/28 08:39:24;;;;;;;9.73;5.13;;;;;;;6.55;100.00;98127.91;5006940;28;20030;-73
2024/03/28 08:41:52;;;;;;;41.00;14.57;;;;;;;6.59;100.00;98132.50;5021277;28;20139;-74
2024/03/28 08:44:18;;;;;;;62.88;26.25;;;;;;;6.48;100.00;98132.25;5006339;28;20121;-75
2024/03/28 08:46:44;;;;;;;32.85;12.45;;;;;;;6.55;100.00;98140.78;5023962;28;20034;-74
2024/03/28 08:49:09;;;;;;;46.45;21.48;;;;;;;6.57;100.00;98141.38;5008466;28;20503;-74
2024/03/28 08:51:35;;;;;;;23.50;12.18;;;;;;;6.57;100.00;98147.34;5007887;28;20041;-73
2024/03/28 08:54:05;;;;;;;10.70;6.47;;;;;;;6.65;100.00;98143.81;5021996;28;20485;-74
2024/03/28 08:56:35;;;;;;;12.82;8.02;;;;;;;6.57;100.00;98146.53;5012968;28;20038;-74
2024/03/28 08:59:01;;;;;;;12.30;6.30;;;;;;;6.60;100.00;98154.66;5008785;28;20076;-74
2024/03/28 09:01:27;;;;;;;9.45;5.63;;;;;;;6.64;100.00;98152.50;5020902;28;20124;-75
2024/03/28 09:03:53;;;;;;;9.80;5.57;;;;;;;6.57;100.00;98151.69;5007239;28;20176;-74
2024/03/28 09:06:19;;;;;;;12.00;5.57;;;;;;;6.58;100.00;98154.06;5006968;28;20049;-75
2024/03/28 09:08:46;;;;;;;9.60;5.05;;;;;;;6.74;100.00;98157.28;4993852;28;20045;-74
2024/03/28 09:11:12;;;;;;;13.43;6.38;;;;;;;6.64;100.00;98155.06;4992372;28;20041;-75
2024/03/28 09:13:38;;;;;;;6.43;4.28;;;;;;;6.67;100.00;98159.03;5006401;28;20022;-75
2024/03/28 09:16:06;;;;;;;7.90;4.60;;;;;;;6.69;100.00;98165.59;4999336;28;20731;-74
2024/03/28 09:18:32;;;;;;;8.27;5.13;;;;;;;6.72;100.00;98156.69;5008037;28;20469;-75
2024/03/28 09:21:00;;;;;;;6.70;4.13;;;;;;;6.78;100.00;98156.69;5023111;28;20496;-74
2024/03/28 09:23:26;;;;;;;11.13;3.92;;;;;;;6.86;100.00;98162.66;5013381;28;20064;-74
2024/03/28 09:25:51;;;;;;;7.10;4.18;;;;;;;6.87;100.00;98164.25;5005116;28;20592;-75
2024/03/28 09:28:18;;;;;;;6.00;3.90;;;;;;;6.84;100.00;98168.00;5006849;28;20058;-74
2024/03/28 09:30:44;;;;;;;4.38;2.75;;;;;;;6.88;100.00;98158.91;5023502;28;20038;-75
2024/03/28 09:33:10;;;;;;;5.40;3.10;;;;;;;6.96;100.00;98166.44;5024535;28;20044;-75
2024/03/28 09:35:36;;;;;;;7.03;2.40;;;;;;;7.09;100.00;98162.28;5005073;28;20111;-75
2024/03/28 09:38:02;;;;;;;5.40;2.58;;;;;;;7.11;100.00;98166.25;5025786;28;20030;-75
2024/03/28 09:40:30;;;;;;;4.40;2.30;;;;;;;7.13;100.00;98169.41;5022239;28;20034;-75
2024/03/28 09:42:57;;;;;;;7.20;2.30;;;;;;;7.20;100.00;98169.44;5022400;28;20026;-74
2024/03/28 09:45:27;;;;;;;6.20;2.20;;;;;;;7.29;100.00;98170.81;5006316;28;20416;-74
2024/03/28 09:47:54;;;;;;;9.55;2.42;;;;;;;7.24;100.00;98183.50;5026429;28;20042;-74
2024/03/28 09:50:23;;;;;;;13.63;6.35;;;;;;;7.18;100.00;98194.63;5024497;28;20032;-75
2024/03/28 09:52:50;;;;;;;13.68;5.45;;;;;;;7.20;100.00;98201.16;5023533;28;20592;-74
2024/03/28 09:55:17;;;;;;;9.48;4.95;;;;;;;7.13;100.00;98208.06;5010471;28;20095;-74
2024/03/28 09:57:43;;;;;;;7.45;3.88;;;;;;;7.17;100.00;98222.16;5005956;28;20026;-74
2024/03/28 10:00:11;;;;;;;3.63;2.53;;;;;;;7.28;100.00;98225.16;5028714;28;20036;-74
2024/03/28 10:02:53;;;;;;;15.60;8.85;;;;;;;7.25;100.00;98236.63;5023396;28;20181;-74
2024/03/28 10:05:19;;;;;;;5.22;3.50;;;;;;;7.26;100.00;98242.59;5008087;28;20044;-74
2024/03/28 10:07:47;;;;;;;0.85;0.73;;;;;;;7.14;100.00;98240.59;5006476;28;20133;-74
2024/03/28 10:10:14;;;;;;;1.38;1.05;;;;;;;7.07;100.00;98247.53;5024871;28;20034;-75
2024/03/28 10:12:54;;;;;;;3.90;1.80;;;;;;;6.99;100.00;98261.38;5010366;28;20081;-74
2024/03/28 10:15:20;;;;;;;2.40;0.90;;;;;;;6.96;100.00;98260.97;5025676;28;21280;-75
2024/03/28 10:17:56;;;;;;;1.95;0.90;;;;;;;6.88;100.00;98269.66;5008813;28;20114;-75
2024/03/28 10:20:24;;;;;;;3.15;1.52;;;;;;;6.92;100.00;98270.88;5010611;28;20037;-75
2024/03/28 10:22:52;;;;;;;9.68;5.47;;;;;;;7.01;100.00;98277.44;5023112;28;20046;-75
2024/03/28 10:25:25;;;;;;;3.53;1.88;;;;;;;7.13;100.00;98282.03;5013029;28;20041;-75
2024/03/28 10:27:56;;;;;;;;;;;;;;;7.25;100.00;98277.88;5006514;28;20046;-74
2024/03/28 10:30:26;;;;;;;3.50;1.70;;;;;;;7.37;100.00;98280.69;4990642;28;19964;-74
2024/03/28 10:33:03;;;;;;;1.15;0.98;;;;;;;7.52;100.00;98288.25;5006729;28;20026;-75
2024/03/28 10:35:31;;;;;;;2.22;1.70;;;;;;;7.70;100.00;98287.66;5009106;28;20476;-74
2024/03/28 10:38:07;;;;;;;1.77;1.38;;;;;;;7.77;100.00;98296.97;5010070;28;20066;-75
2024/03/28 10:40:36;;;;;;;2.38;0.90;;;;;;;7.78;100.00;98292.63;5030250;28;20052;-74
2024/03/28 10:43:04;;;;;;;2.45;1.20;;;;;;;7.85;100.00;98301.13;5022512;28;20036;-73
2024/03/28 10:45:34;;;;;;;2.30;1.13;;;;;;;7.81;100.00;98310.28;5016387;28;20029;-74
2024/03/28 10:48:02;;;;;;;1.15;1.00;;;;;;;7.93;100.00;98313.03;5035122;28;20099;-74
2024/03/28 10:50:36;;;;;;;2.72;1.27;;;;;;;8.19;100.00;98320.78;5024342;28;20048;-74
2024/03/28 10:53:06;;;;;;;1.88;1.13;;;;;;;8.43;100.00;98328.13;5008066;28;20029;-74
2024/03/28 10:55:37;;;;;;;2.20;1.02;;;;;;;8.63;100.00;98336.63;5032188;28;20076;-74
2024/03/28 10:58:07;;;;;;;2.10;1.13;;;;;;;8.74;100.00;98327.47;5008665;28;20097;-74
2024/03/28 11:00:33;;;;;;;1.50;1.15;;;;;;;8.85;100.00;98328.59;5024667;28;20065;-75
2024/03/28 11:02:59;;;;;;;4.85;1.00;;;;;;;8.92;100.00;98340.50;4997258;28;20129;-75
2024/03/28 11:05:29;;;;;;;4.40;1.08;;;;;;;9.14;99.28;98353.16;5003948;28;20465;-75
2024/03/28 11:07:55;;;;;;;3.13;1.05;;;;;;;9.26;97.66;98351.47;5009161;28;20048;-75
2024/03/28 11:10:22;;;;;;;2.78;1.05;;;;;;;9.56;96.25;98356.09;5022437;28;20475;-74
2024/03/28 11:12:53;;;;;;;6.70;2.28;;;;;;;9.74;94.82;98363.94;5023933;28;20087;-75
2024/03/28 11:15:22;;;;;;;1.20;0.82;;;;;;;9.88;92.56;98362.03;5005797;28;20531;-75
2024/03/28 11:17:48;;;;;;;1.25;0.75;;;;;;;10.01;90.16;98363.75;5004115;28;20488;-75
2024/03/28 11:20:20;;;;;;;1.52;0.80;;;;;;;9.91;86.34;98366.81;5023529;28;20052;-76
2024/03/28 11:22:46;;;;;;;0.97;0.70;;;;;;;9.83;87.74;98379.22;5005670;28;20465;-76
2024/03/28 11:25:28;;;;;;;1.92;0.70;;;;;;;9.83;87.60;98377.44;5005662;28;20038;-75
2024/03/28 11:28:10;;;;;;;4.40;0.70;;;;;;;9.80;90.68;98384.81;4979506;28;20130;-76
2024/03/28 11:30:37;;;;;;;2.33;0.50;;;;;;;9.84;86.99;98388.56;4990684;28;20045;-76
2024/03/28 11:33:04;;;;;;;3.95;0.60;;;;;;;10.07;84.85;98390.59;5021958;28;20029;-75
2024/03/28 11:35:29;;;;;;;1.13;0.77;;;;;;;10.45;81.31;98400.88;5020725;28;20046;-76